Terminal Aerodrome Forecast
Issued by NWS

Home | Current Version | Previous Version | Graphics & Text | Print | Product List | Glossary On
Versions: 1 2 3 4 5 6 7 8 9 10 11 12 13 14 15 16
000
FTUS43 KMPX 051742
TAFRNH
TAF
KRNH 051742Z 0518/0618 13010KT P6SM SCT060 OVC100
     FM060400 16013G20KT 4SM -SNRA OVC022
     FM060900 22011KT P6SM OVC020
     FM061700 24018G30KT P6SM VCSH OVC025=

USA.gov is the U.S. government's official web portal to all federal, state and local government web resources and services.